Aviation Digital Data Service (ADDS)

Output produced by METARs form (1056 UTC 18 June 2019)
found at http://www.aviationweather.gov/metar/data/
 
Forecast for: LFTH (HYERES/LE PALYVE, FR)
Text: TAF LFTH 180800Z 1809/1909 22008KT CAVOK
Forecast period: 0900 to 1900 UTC 18 June 2019
Forecast type: FROM: standard forecast or significant change
Winds: from the SW (220 degrees) at 9 MPH (8 knots; 4.1 m/s)
Visibility: 6 or more miles 10+ km)
Ceiling: unknown
Clouds: missing
Weather: NSW  (no significant weather)
Text: TEMPO 1811/1815 23010G20KT
Forecast period: 1100 to 1500 UTC 18 June 2019
Forecast type: TEMPORARY: The following changes expected for less than half the time period
Winds: from the SW (230 degrees) at 12 MPH (10 knots; 5.1 m/s)
gusting to 23 MPH (20 knots; 10.3 m/s)
Visibility: missing
Ceiling: unknown
Clouds: missing
Weather: no significant weather forecast for this period
Text: BECMG 1819/1821 28004KT
Forecast period: 1900 UTC 18 June 2019 to 0900 UTC 19 June 2019
Forecast type: BECOMING: Conditions expected to become as follows by 2100 UTC 18 June 2019
Winds: from the W (280 degrees) at 5 MPH (4 knots; 2.1 m/s)
Visibility: 6 or more miles 10+ km)
Ceiling: unknown
Clouds: missing
Weather: NSW  (no significant weather)